Airfield :
LOGIN :

Register | Disclaimer

   EN    FR    IT 

 










Legend :    VFR   Marginal VFR   IFR   Intensive IFR   Very Intensive IFR
Visi :
Ceiling :
>= 8 km
>= 3000ft
5 to 8 km
1000 to 3000 ft
1500m to 5 km
500 to 1000 ft
800 to 1500m
200 to 500 ft
< 800m
< 200 ft
Symbols :   Thunderstorms  Fog  Heavy snow  Heavy precipitations  Wind > 20 kt
SIGMETs :     Misc.  Thunderstorms  Icing  Turbulence  Mountain Waves  Volcanic Ashes







- Airport Elevation : 436 ft
- IATA code : BTS


LZIB - Bratislava

CURRENT METAR :
  • 281200Z 31008KT 9999 -RA FEW010 BKN013 BKN017 07/05 Q1008 NOSIG

EXPIRED METARs :
  • 281130Z 30009KT 9999 -RA FEW010 BKN013 BKN016 07/05 Q1008 NOSIG
  • 281100Z 31007KT 9999 -RA FEW010 SCT013 BKN036 08/05 Q1007 NOSIG
  • 281030Z 30010KT 9999 -RA FEW010 BKN013 BKN036 07/05 Q1008 NOSIG
  • 281000Z 30008KT 9999 -RA FEW009 SCT013 BKN035 07/05 Q1008 NOSIG
  • 280930Z 30008KT 9999 -RA FEW008 SCT012 BKN034 06/05 Q1008 NOSIG

TAF TAF LZIB
Valid from the 28 at 12:00 until the 29 at 12:00 UTC


281100Z 2812/2912 30008KT 9999 -RA SCT010 BKN030
TEMPO 2812/2815 4000 RA SCT008 OVC012
BECMG 2815/2817 32013KT NSW SCT015 BKN040
No reported NOTAMs for that airfield.



MET'MAP, your aeronautical weather chart ! - Copyright ORBIFLY December 2007 - Disclaimer

ORBIFLY MET'MAP TEAM :

Programming & Development : Alexandra Zaïnal
Concept & Development : Baudouin d'Aumeries
Co-Development & Prog : Marc-Olivier Méhu
Technical & hardware support : Manuel Goepfert

Contact : metmap@orbifly.com




SOURCES & CREDITS :

   NOAA